Mount Selman, Texas
Current Conditions -  °F | °C
As of 11:53 AM on Monday 24 Nov 2014 (Local Time) from KTYR Reporting Station
Clear Clear  
Wind Chill: 59°   Ceiling: Unl
Heat Index: 59°   Visibility: 10mi
Dew Point: 27°   Wind: 12mph
Humidity: 29%   Direction: 310°NW
Pressure: 30.04"   Gusts: 21mph
Location:  32.1219°N, 95.3574°W
Report Text: KTYR 241753Z 31010G18KT 10SM CLR 15/M03 A3004 RMK AO2 SLP169 T01501028 10156 20050 50005
Loading
Personal Weather Stations






























Interactive Weather Map New forecast layout! Learn more

10-Day Weather Forecast

Advertisements
Track Severe Weather on mobile